createdAt,value
2019-03-17T00:00:05.684Z,992.82
2019-03-17T00:00:32.379Z,992.82
2019-03-17T00:00:59.003Z,992.91
2019-03-17T00:01:26.462Z,992.81
2019-03-17T00:01:57.555Z,992.89
2019-03-17T00:02:22.254Z,992.73
2019-03-17T00:02:48.930Z,992.91
2019-03-17T00:03:15.256Z,992.74
2019-03-17T00:03:41.550Z,992.63
2019-03-17T00:04:08.136Z,992.8
2019-03-17T00:04:36.664Z,992.71
2019-03-17T00:05:03.519Z,992.82
2019-03-17T00:05:29.813Z,992.77
2019-03-17T00:05:56.554Z,992.63
2019-03-17T00:06:24.237Z,992.64
2019-03-17T00:06:51.723Z,992.6
2019-03-17T00:07:17.972Z,992.69
2019-03-17T00:07:44.193Z,992.75
2019-03-17T00:08:10.519Z,992.63
2019-03-17T00:08:36.942Z,992.76
2019-03-17T00:09:03.608Z,992.66
2019-03-17T00:09:29.869Z,992.68
2019-03-17T00:09:56.215Z,992.69
2019-03-17T00:10:22.602Z,992.55
2019-03-17T00:10:48.925Z,992.75
2019-03-17T00:11:15.696Z,992.68
2019-03-17T00:11:42.474Z,992.66
2019-03-17T00:12:09.087Z,992.63
2019-03-17T00:12:36.903Z,992.74
2019-03-17T00:13:03.431Z,992.68
2019-03-17T00:13:30.003Z,992.61
2019-03-17T00:13:56.174Z,992.63
2019-03-17T00:14:22.982Z,992.56
2019-03-17T00:14:49.085Z,992.54
2019-03-17T00:15:17.258Z,992.51
2019-03-17T00:15:43.362Z,992.58
2019-03-17T00:16:09.505Z,992.6
2019-03-17T00:16:35.617Z,992.57
2019-03-17T00:17:01.724Z,992.55
2019-03-17T00:17:28.825Z,992.58
2019-03-17T00:17:55.922Z,992.57
2019-03-17T00:18:22.062Z,992.41
2019-03-17T00:18:48.273Z,992.45
2019-03-17T00:19:14.373Z,992.38
2019-03-17T00:19:41.650Z,992.5
2019-03-17T00:20:07.769Z,992.48
2019-03-17T00:20:33.907Z,992.56
2019-03-17T00:21:00.305Z,992.4
2019-03-17T00:21:26.403Z,992.45
2019-03-17T00:21:52.515Z,992.53
2019-03-17T00:22:18.647Z,992.43
2019-03-17T00:22:44.765Z,992.48
2019-03-17T00:23:10.941Z,992.29
2019-03-17T00:23:37.050Z,992.46
2019-03-17T00:24:03.191Z,992.34
2019-03-17T00:24:29.788Z,992.35
2019-03-17T00:25:08.144Z,992.27
2019-03-17T00:25:24.078Z,992.27
2019-03-17T00:25:50.191Z,992.35
2019-03-17T00:26:16.304Z,992.31
2019-03-17T00:26:42.443Z,992.33
2019-03-17T00:27:08.555Z,992.19
2019-03-17T00:27:34.693Z,992.37
2019-03-17T00:28:00.806Z,992.27
2019-03-17T00:28:27.084Z,992.24
2019-03-17T00:28:54.155Z,992.38
2019-03-17T00:29:20.415Z,992.2
2019-03-17T00:29:46.597Z,992.24
2019-03-17T00:30:12.730Z,992.18
2019-03-17T00:30:38.875Z,992.32
2019-03-17T00:31:04.991Z,992.12
2019-03-17T00:31:32.189Z,992.18
2019-03-17T00:31:58.358Z,992.19
2019-03-17T00:32:24.423Z,992.36
2019-03-17T00:32:50.639Z,992.34
2019-03-17T00:33:16.861Z,992.27
2019-03-17T00:33:42.997Z,992.25
2019-03-17T00:34:09.153Z,992.23
2019-03-17T00:34:43.857Z,992.33
2019-03-17T00:35:03.496Z,992.08
2019-03-17T00:35:30.113Z,992.2
2019-03-17T00:35:56.451Z,992.26
2019-03-17T00:36:22.693Z,992.14
2019-03-17T00:36:48.844Z,992.26
2019-03-17T00:37:14.970Z,992.04
2019-03-17T00:37:41.103Z,992.23
2019-03-17T00:38:07.205Z,992.19
2019-03-17T00:38:33.417Z,992.24
2019-03-17T00:38:59.525Z,992.1
2019-03-17T00:39:25.887Z,992.29
2019-03-17T00:39:53.358Z,992.23
2019-03-17T00:40:20.665Z,992.11
2019-03-17T00:40:46.897Z,992.1
2019-03-17T00:41:13.078Z,992.2
2019-03-17T00:41:40.177Z,992.09
2019-03-17T00:42:06.296Z,992.05
2019-03-17T00:42:32.473Z,992.15
2019-03-17T00:42:58.592Z,992.07
2019-03-17T00:43:24.821Z,992.14
2019-03-17T00:43:50.979Z,992.09
2019-03-17T00:44:17.099Z,992.18
2019-03-17T00:44:43.224Z,992.04
2019-03-17T00:45:11.446Z,992.21
2019-03-17T00:45:35.453Z,992.21
2019-03-17T00:46:01.565Z,992.17
2019-03-17T00:46:27.674Z,992.29
2019-03-17T00:46:53.783Z,992.13
2019-03-17T00:47:20.904Z,992.09
2019-03-17T00:47:47.018Z,992.14
2019-03-17T00:48:13.127Z,992.22
2019-03-17T00:48:39.241Z,992.32
2019-03-17T00:49:05.380Z,992.22
2019-03-17T00:49:31.486Z,992.27
2019-03-17T00:49:57.593Z,992.19
2019-03-17T00:50:23.703Z,992.08
2019-03-17T00:50:49.806Z,992.1
2019-03-17T00:51:15.943Z,992.12
2019-03-17T00:51:42.051Z,992.13
2019-03-17T00:52:08.256Z,992.19
2019-03-17T00:52:34.383Z,992.3
2019-03-17T00:53:00.499Z,992.26
2019-03-17T00:53:26.602Z,992.5
2019-03-17T00:53:52.719Z,992.22
2019-03-17T00:54:18.823Z,992.2
2019-03-17T00:54:44.968Z,992.18
2019-03-17T00:55:11.081Z,992.09
2019-03-17T00:55:37.189Z,992.08
2019-03-17T00:56:03.301Z,992.22
2019-03-17T00:56:29.406Z,992.11
2019-03-17T00:56:55.516Z,992.12
2019-03-17T00:57:21.625Z,992.25
2019-03-17T00:57:47.739Z,992.36
2019-03-17T00:58:14.833Z,992.02
2019-03-17T00:58:40.937Z,992.09
2019-03-17T00:59:07.049Z,992.11
2019-03-17T00:59:33.162Z,992.06
2019-03-17T00:59:59.269Z,992.08
2019-03-17T01:00:25.385Z,992.05
2019-03-17T01:00:51.526Z,991.97
2019-03-17T01:01:17.637Z,992.12
2019-03-17T01:01:43.770Z,992
2019-03-17T01:02:09.878Z,991.99
2019-03-17T01:02:36.028Z,991.92
2019-03-17T01:03:02.139Z,991.91
2019-03-17T01:03:28.243Z,991.98
2019-03-17T01:03:55.026Z,991.98
2019-03-17T01:04:21.136Z,991.91
2019-03-17T01:04:55.634Z,991.94
2019-03-17T01:05:15.336Z,991.84
2019-03-17T01:05:41.931Z,992.01
2019-03-17T01:06:08.037Z,991.88
2019-03-17T01:06:34.170Z,991.79
2019-03-17T01:07:00.332Z,991.83
2019-03-17T01:07:26.440Z,991.77
2019-03-17T01:07:52.553Z,991.88
2019-03-17T01:08:18.659Z,991.71
2019-03-17T01:08:44.765Z,991.78
2019-03-17T01:09:10.871Z,991.77
2019-03-17T01:09:36.979Z,991.87
2019-03-17T01:10:03.089Z,991.82
2019-03-17T01:10:29.202Z,991.62
2019-03-17T01:10:55.304Z,991.78
2019-03-17T01:11:21.417Z,991.97
2019-03-17T01:11:47.521Z,991.72
2019-03-17T01:12:13.654Z,991.68
2019-03-17T01:12:39.793Z,991.76
2019-03-17T01:13:06.167Z,991.67
2019-03-17T01:13:32.270Z,991.63
2019-03-17T01:13:58.381Z,991.66
2019-03-17T01:14:24.488Z,991.73
2019-03-17T01:14:50.599Z,991.64
2019-03-17T01:15:16.710Z,991.74
2019-03-17T01:15:42.845Z,991.66
2019-03-17T01:16:08.948Z,991.6
2019-03-17T01:16:35.060Z,991.74
2019-03-17T01:17:01.166Z,991.8
2019-03-17T01:17:27.276Z,991.7
2019-03-17T01:17:53.411Z,991.59
2019-03-17T01:18:19.516Z,991.61
2019-03-17T01:18:45.621Z,991.7
2019-03-17T01:19:11.734Z,991.58
2019-03-17T01:19:37.840Z,991.62
2019-03-17T01:20:03.948Z,991.51
2019-03-17T01:20:30.057Z,991.59
2019-03-17T01:20:56.168Z,991.68
2019-03-17T01:21:22.280Z,991.66
2019-03-17T01:21:48.394Z,991.48
2019-03-17T01:22:14.525Z,991.62
2019-03-17T01:22:40.630Z,991.49
2019-03-17T01:23:06.737Z,991.78
2019-03-17T01:23:32.880Z,991.5
2019-03-17T01:23:59.018Z,991.47
2019-03-17T01:24:26.125Z,991.42
2019-03-17T01:24:52.273Z,991.44
2019-03-17T01:25:18.378Z,991.38
2019-03-17T01:25:44.489Z,991.52
2019-03-17T01:26:10.603Z,991.45
2019-03-17T01:26:36.711Z,991.46
2019-03-17T01:27:02.819Z,991.49
2019-03-17T01:27:28.924Z,991.43
2019-03-17T01:27:55.061Z,991.59
2019-03-17T01:28:21.166Z,991.4
2019-03-17T01:28:47.283Z,991.56
2019-03-17T01:29:13.392Z,991.52
2019-03-17T01:29:39.531Z,991.42
2019-03-17T01:30:06.634Z,991.36
2019-03-17T01:30:32.769Z,991.36
2019-03-17T01:30:58.900Z,991.48
2019-03-17T01:31:25.045Z,991.42
2019-03-17T01:31:51.155Z,991.27
2019-03-17T01:32:17.276Z,991.3
2019-03-17T01:32:43.378Z,991.27
2019-03-17T01:33:09.494Z,991.35
2019-03-17T01:33:35.628Z,991.23
2019-03-17T01:34:01.769Z,991.32
2019-03-17T01:34:27.875Z,991.25
2019-03-17T01:34:53.990Z,991.28
2019-03-17T01:35:22.082Z,991.43
2019-03-17T01:35:48.501Z,991.32
2019-03-17T01:36:14.612Z,991.43
2019-03-17T01:36:40.722Z,991.36
2019-03-17T01:37:06.833Z,991.37
2019-03-17T01:37:32.933Z,991.33
2019-03-17T01:37:59.040Z,991.22
2019-03-17T01:38:25.153Z,991.36
2019-03-17T01:38:51.261Z,991.29
2019-03-17T01:39:17.399Z,991.37
2019-03-17T01:39:43.514Z,991.38
2019-03-17T01:40:09.617Z,991.37
2019-03-17T01:40:35.730Z,991.29
2019-03-17T01:41:01.839Z,991.32
2019-03-17T01:41:27.940Z,991.3
2019-03-17T01:41:54.046Z,991.4
2019-03-17T01:42:20.314Z,991.3
2019-03-17T01:42:46.425Z,991.41
2019-03-17T01:43:12.565Z,991.38
2019-03-17T01:43:38.669Z,991.39
2019-03-17T01:44:04.781Z,991.34
2019-03-17T01:44:30.894Z,991.18
2019-03-17T01:44:56.999Z,991.23
2019-03-17T01:45:23.123Z,991.22
2019-03-17T01:45:49.222Z,991.22
2019-03-17T01:46:15.325Z,991.24
2019-03-17T01:46:41.435Z,991.26
2019-03-17T01:47:07.554Z,991.19
2019-03-17T01:47:33.729Z,991.24
2019-03-17T01:47:59.837Z,991.23
2019-03-17T01:48:25.947Z,991.23
2019-03-17T01:48:52.094Z,991.29
2019-03-17T01:49:18.329Z,991.26
2019-03-17T01:49:44.584Z,991.28
2019-03-17T01:50:10.825Z,991.36
2019-03-17T01:50:36.936Z,991.35
2019-03-17T01:51:03.080Z,991.3
2019-03-17T01:51:29.186Z,991.35
2019-03-17T01:51:55.297Z,991.61
2019-03-17T01:52:21.452Z,991.26
2019-03-17T01:52:47.576Z,991.21
2019-03-17T01:53:13.691Z,991.27
2019-03-17T01:53:39.792Z,991.35
2019-03-17T01:54:05.903Z,991.4
2019-03-17T01:54:32.083Z,991.48
2019-03-17T01:54:58.191Z,991.24
2019-03-17T01:55:24.298Z,991.26
2019-03-17T01:55:50.407Z,991.44
2019-03-17T01:56:16.517Z,991.34
2019-03-17T01:56:42.619Z,991.27
2019-03-17T01:57:08.727Z,991.13
2019-03-17T01:57:34.851Z,991.3
2019-03-17T01:58:01.034Z,991.27
2019-03-17T01:58:27.275Z,991.3
2019-03-17T01:58:53.370Z,991.19
2019-03-17T01:59:19.514Z,991.24
2019-03-17T01:59:45.645Z,991.32
2019-03-17T02:00:11.753Z,991.25
2019-03-17T02:00:37.861Z,991.36
2019-03-17T02:01:03.979Z,991.43
2019-03-17T02:01:31.074Z,991.33
2019-03-17T02:01:57.186Z,991.21
2019-03-17T02:02:23.305Z,991.2
2019-03-17T02:02:49.411Z,991.21
2019-03-17T02:03:15.553Z,991.26
2019-03-17T02:03:41.660Z,991.14
2019-03-17T02:04:07.771Z,991.18
2019-03-17T02:04:33.875Z,991.16
2019-03-17T02:04:59.972Z,991.26
2019-03-17T02:05:28.069Z,991.09
2019-03-17T02:05:54.181Z,991.24
2019-03-17T02:06:20.312Z,991.17
2019-03-17T02:06:46.416Z,991.21
2019-03-17T02:07:12.530Z,991.31
2019-03-17T02:07:38.642Z,991.15
2019-03-17T02:08:04.756Z,991.24
2019-03-17T02:08:30.938Z,991.57
2019-03-17T02:08:56.996Z,991.15
2019-03-17T02:09:23.105Z,990.91
2019-03-17T02:09:49.219Z,991.23
2019-03-17T02:10:15.325Z,991.13
2019-03-17T02:10:41.483Z,991.04
2019-03-17T02:11:07.599Z,991.08
2019-03-17T02:11:33.691Z,991.12
2019-03-17T02:11:59.799Z,991.13
2019-03-17T02:12:25.913Z,991
2019-03-17T02:12:52.022Z,991.1
2019-03-17T02:13:18.128Z,991.08
2019-03-17T02:13:44.229Z,991.02
2019-03-17T02:14:10.338Z,990.99
2019-03-17T02:14:36.446Z,991.05
2019-03-17T02:15:02.566Z,991.02
2019-03-17T02:15:28.678Z,991.09
2019-03-17T02:15:54.785Z,990.91
2019-03-17T02:16:20.919Z,991.02
2019-03-17T02:16:47.026Z,990.93
2019-03-17T02:17:13.142Z,990.95
2019-03-17T02:17:39.278Z,990.93
2019-03-17T02:18:05.386Z,990.9
2019-03-17T02:18:31.496Z,990.79
2019-03-17T02:18:57.630Z,990.98
2019-03-17T02:19:23.748Z,991.02
2019-03-17T02:19:49.847Z,990.86
2019-03-17T02:20:16.018Z,990.92
2019-03-17T02:20:42.143Z,990.89
2019-03-17T02:21:08.281Z,990.82
2019-03-17T02:21:34.388Z,990.74
2019-03-17T02:22:00.502Z,990.84
2019-03-17T02:22:27.553Z,990.9
2019-03-17T02:22:53.662Z,990.87
2019-03-17T02:23:19.773Z,991
2019-03-17T02:23:45.877Z,990.85
2019-03-17T02:24:11.989Z,990.8
2019-03-17T02:24:38.119Z,990.75
2019-03-17T02:25:04.259Z,990.78
2019-03-17T02:25:30.344Z,990.74
2019-03-17T02:25:56.455Z,990.92
2019-03-17T02:26:22.558Z,990.91
2019-03-17T02:26:48.667Z,990.87
2019-03-17T02:27:14.786Z,990.78
2019-03-17T02:27:40.915Z,990.77
2019-03-17T02:28:07.058Z,990.76
2019-03-17T02:28:33.163Z,990.85
2019-03-17T02:28:59.284Z,990.76
2019-03-17T02:29:25.431Z,990.77
2019-03-17T02:29:51.513Z,990.87
2019-03-17T02:30:17.621Z,990.79
2019-03-17T02:30:43.733Z,990.97
2019-03-17T02:31:09.874Z,990.72
2019-03-17T02:31:36.013Z,990.71
2019-03-17T02:32:02.150Z,990.74
2019-03-17T02:32:28.261Z,990.87
2019-03-17T02:32:54.375Z,990.76
2019-03-17T02:33:20.523Z,990.75
2019-03-17T02:33:46.623Z,990.67
2019-03-17T02:34:12.772Z,990.67
2019-03-17T02:34:38.883Z,990.76
2019-03-17T02:35:04.984Z,990.65
2019-03-17T02:35:38.388Z,990.65
2019-03-17T02:36:00.173Z,990.75
2019-03-17T02:36:26.281Z,990.58
2019-03-17T02:36:52.418Z,990.59
2019-03-17T02:37:18.525Z,990.54
2019-03-17T02:37:44.635Z,990.55
2019-03-17T02:38:10.741Z,990.48
2019-03-17T02:38:36.940Z,990.61
2019-03-17T02:39:03.100Z,990.53
2019-03-17T02:39:30.199Z,990.57
2019-03-17T02:39:56.339Z,990.54
2019-03-17T02:40:22.533Z,990.51
2019-03-17T02:40:48.665Z,990.53
2019-03-17T02:41:14.803Z,990.45
2019-03-17T02:41:40.919Z,990.48
2019-03-17T02:42:07.025Z,990.43
2019-03-17T02:42:33.189Z,990.44
2019-03-17T02:42:59.323Z,990.37
2019-03-17T02:43:25.435Z,990.41
2019-03-17T02:43:51.541Z,990.41
2019-03-17T02:44:17.678Z,990.4
2019-03-17T02:44:43.784Z,990.25
2019-03-17T02:45:09.925Z,990.32
2019-03-17T02:45:36.060Z,990.27
2019-03-17T02:46:03.052Z,990.34
2019-03-17T02:46:29.324Z,990.36
2019-03-17T02:46:55.410Z,990.35
2019-03-17T02:47:21.549Z,990.22
2019-03-17T02:47:47.713Z,990.37
2019-03-17T02:48:13.855Z,990.46
2019-03-17T02:48:39.957Z,990.3
2019-03-17T02:49:06.077Z,990.28
2019-03-17T02:49:32.176Z,990.37
2019-03-17T02:49:58.295Z,990.29
2019-03-17T02:50:24.399Z,990.22
2019-03-17T02:50:50.518Z,990.34
2019-03-17T02:51:16.635Z,990.26
2019-03-17T02:51:42.764Z,990.24
2019-03-17T02:52:08.873Z,990.25
2019-03-17T02:52:35.006Z,990.34
2019-03-17T02:53:01.115Z,990.1
2019-03-17T02:53:27.258Z,990.17
2019-03-17T02:53:53.395Z,990.26
2019-03-17T02:54:19.538Z,990.33
2019-03-17T02:54:45.672Z,990.2
2019-03-17T02:55:11.787Z,990.17
2019-03-17T02:55:37.952Z,990.15
2019-03-17T02:56:04.088Z,990.2
2019-03-17T02:56:30.248Z,990.23
2019-03-17T02:56:56.378Z,990.16
2019-03-17T02:57:22.504Z,990.14
2019-03-17T02:57:48.642Z,990.21
2019-03-17T02:58:14.812Z,990.19
2019-03-17T02:58:40.908Z,990.24
2019-03-17T02:59:07.045Z,990.27
2019-03-17T02:59:33.213Z,990.22
2019-03-17T02:59:59.378Z,990.23
2019-03-17T03:00:26.473Z,990.14
2019-03-17T03:00:52.588Z,990.2
2019-03-17T03:01:18.696Z,990.18
2019-03-17T03:01:44.829Z,990.21
2019-03-17T03:02:10.998Z,990.18
2019-03-17T03:02:37.082Z,990.4
2019-03-17T03:03:03.201Z,990.18
2019-03-17T03:03:29.324Z,990.42
2019-03-17T03:03:55.435Z,990.16
2019-03-17T03:04:21.574Z,990.29
2019-03-17T03:04:47.702Z,990.32
2019-03-17T03:05:13.838Z,990.18
2019-03-17T03:05:53.834Z,990.27
2019-03-17T03:06:08.176Z,990.19
2019-03-17T03:06:34.313Z,990.17
2019-03-17T03:07:00.427Z,990.19
2019-03-17T03:07:26.536Z,990.23
2019-03-17T03:07:52.696Z,990.18
2019-03-17T03:08:18.843Z,990.18
2019-03-17T03:08:44.975Z,990.27
2019-03-17T03:09:11.111Z,990.22
2019-03-17T03:09:37.217Z,990.22
2019-03-17T03:10:03.371Z,990.2
2019-03-17T03:10:31.676Z,990.14
2019-03-17T03:10:56.569Z,990.12
2019-03-17T03:11:22.732Z,990.08
2019-03-17T03:11:48.853Z,990.07
2019-03-17T03:12:15.588Z,990.12
2019-03-17T03:12:41.754Z,990.1
2019-03-17T03:13:07.854Z,990.13
2019-03-17T03:13:33.963Z,990.22
2019-03-17T03:14:00.129Z,990.13
2019-03-17T03:14:26.264Z,989.97
2019-03-17T03:14:52.402Z,990.17
2019-03-17T03:15:18.586Z,989.92
2019-03-17T03:15:44.696Z,990.13
2019-03-17T03:16:11.555Z,990.04
2019-03-17T03:16:37.651Z,989.86
2019-03-17T03:17:03.760Z,990.02
2019-03-17T03:17:30.005Z,990.06
2019-03-17T03:17:56.110Z,989.94
2019-03-17T03:18:22.257Z,990.17
2019-03-17T03:18:48.376Z,990.02
2019-03-17T03:19:14.512Z,990.07
2019-03-17T03:19:40.655Z,990.04
2019-03-17T03:20:06.810Z,990.02
2019-03-17T03:20:32.887Z,989.99
2019-03-17T03:20:58.999Z,989.99
2019-03-17T03:21:25.100Z,990
2019-03-17T03:21:51.240Z,990.03
2019-03-17T03:22:17.356Z,989.93
2019-03-17T03:22:43.469Z,989.97
2019-03-17T03:23:09.593Z,990.04
2019-03-17T03:23:35.696Z,990
2019-03-17T03:24:01.865Z,990.11
2019-03-17T03:24:28.005Z,989.9
2019-03-17T03:24:54.126Z,989.97
2019-03-17T03:25:20.318Z,989.95
2019-03-17T03:25:46.426Z,990.04
2019-03-17T03:26:12.532Z,990.02
2019-03-17T03:26:38.682Z,989.97
2019-03-17T03:27:04.797Z,990
2019-03-17T03:27:30.928Z,989.93
2019-03-17T03:27:57.044Z,990.02
2019-03-17T03:28:23.175Z,989.94
2019-03-17T03:28:49.276Z,990.05
2019-03-17T03:29:15.464Z,989.96
2019-03-17T03:29:42.567Z,989.98
2019-03-17T03:30:08.698Z,989.96
2019-03-17T03:30:35.006Z,989.92
2019-03-17T03:31:01.131Z,989.88
2019-03-17T03:31:27.459Z,990.04
2019-03-17T03:31:53.555Z,990.01
2019-03-17T03:32:19.720Z,990.01
2019-03-17T03:32:45.857Z,990.02
2019-03-17T03:33:11.977Z,989.95
2019-03-17T03:33:38.166Z,989.99
2019-03-17T03:34:04.261Z,989.96
2019-03-17T03:34:30.408Z,989.97
2019-03-17T03:34:56.563Z,989.92
2019-03-17T03:35:22.870Z,990.04
2019-03-17T03:35:49.008Z,989.99
2019-03-17T03:36:18.086Z,990.06
2019-03-17T03:36:44.227Z,989.86
2019-03-17T03:37:10.326Z,990.04
2019-03-17T03:37:36.433Z,989.86
2019-03-17T03:38:02.610Z,989.95
2019-03-17T03:38:28.752Z,989.92
2019-03-17T03:38:54.849Z,990
2019-03-17T03:39:20.954Z,989.89
2019-03-17T03:39:47.099Z,989.91
2019-03-17T03:40:13.214Z,990.07
2019-03-17T03:40:39.340Z,989.91
2019-03-17T03:41:05.471Z,989.93
2019-03-17T03:41:31.585Z,989.93
2019-03-17T03:41:57.699Z,989.91
2019-03-17T03:42:23.836Z,989.96
2019-03-17T03:42:49.941Z,989.8
2019-03-17T03:43:16.160Z,989.94
2019-03-17T03:43:42.301Z,990.04
2019-03-17T03:44:08.420Z,989.86
2019-03-17T03:44:34.595Z,990.01
2019-03-17T03:45:00.703Z,989.95
2019-03-17T03:45:26.841Z,989.95
2019-03-17T03:45:52.940Z,989.95
2019-03-17T03:46:19.079Z,989.89
2019-03-17T03:46:45.188Z,990
2019-03-17T03:47:11.321Z,989.89
2019-03-17T03:47:37.462Z,989.91
2019-03-17T03:48:03.602Z,989.93
2019-03-17T03:48:29.713Z,989.94
2019-03-17T03:48:55.813Z,989.87
2019-03-17T03:49:21.933Z,989.93
2019-03-17T03:49:48.069Z,989.97
2019-03-17T03:50:15.171Z,990.11
2019-03-17T03:50:41.280Z,990.01
2019-03-17T03:51:07.390Z,989.89
2019-03-17T03:51:33.502Z,989.96
2019-03-17T03:51:59.606Z,990.08
2019-03-17T03:52:25.784Z,989.82
2019-03-17T03:52:51.901Z,989.9
2019-03-17T03:53:18.001Z,989.92
2019-03-17T03:53:44.108Z,989.96
2019-03-17T03:54:10.406Z,989.97
2019-03-17T03:54:36.471Z,990.07
2019-03-17T03:55:02.618Z,990.04
2019-03-17T03:55:28.742Z,989.97
2019-03-17T03:55:55.844Z,989.99
2019-03-17T03:56:21.976Z,989.93
2019-03-17T03:56:48.087Z,990.08
2019-03-17T03:57:14.225Z,989.91
2019-03-17T03:57:40.364Z,990.11
2019-03-17T03:58:06.498Z,989.96
2019-03-17T03:58:32.626Z,990.01
2019-03-17T03:58:58.741Z,990.07
2019-03-17T03:59:24.883Z,990.02
2019-03-17T03:59:51.019Z,990.06
2019-03-17T04:00:17.128Z,990.04
2019-03-17T04:00:43.238Z,989.91
2019-03-17T04:01:09.379Z,990
2019-03-17T04:01:35.511Z,989.89
2019-03-17T04:02:01.650Z,989.99
2019-03-17T04:02:27.788Z,990
2019-03-17T04:02:53.935Z,989.9
2019-03-17T04:03:20.065Z,990
2019-03-17T04:03:46.191Z,989.99
2019-03-17T04:04:12.320Z,989.89
2019-03-17T04:04:38.424Z,989.91
2019-03-17T04:05:04.604Z,989.91
2019-03-17T04:05:32.631Z,990.04
2019-03-17T04:05:57.840Z,989.99
2019-03-17T04:06:27.140Z,989.9
2019-03-17T04:06:53.060Z,990.05
2019-03-17T04:07:19.199Z,989.98
2019-03-17T04:07:45.304Z,989.94
2019-03-17T04:08:11.411Z,989.87
2019-03-17T04:08:37.581Z,989.84
2019-03-17T04:09:03.708Z,989.79
2019-03-17T04:09:29.911Z,989.92
2019-03-17T04:09:56.057Z,989.81
2019-03-17T04:10:22.188Z,989.85
2019-03-17T04:10:48.324Z,989.83
2019-03-17T04:11:14.489Z,989.83
2019-03-17T04:11:40.625Z,989.88
2019-03-17T04:12:06.734Z,989.85
2019-03-17T04:12:32.844Z,989.82
2019-03-17T04:12:59.042Z,989.9
2019-03-17T04:13:25.205Z,989.86
2019-03-17T04:13:51.342Z,989.79
2019-03-17T04:14:17.459Z,989.94
2019-03-17T04:14:43.565Z,989.84
2019-03-17T04:15:09.672Z,989.74
2019-03-17T04:15:35.814Z,989.78
2019-03-17T04:16:01.923Z,989.78
2019-03-17T04:16:28.043Z,989.76
2019-03-17T04:16:54.168Z,989.88
2019-03-17T04:17:20.277Z,989.88
2019-03-17T04:17:46.406Z,989.77
2019-03-17T04:18:12.584Z,989.7
2019-03-17T04:18:38.719Z,989.8
2019-03-17T04:19:04.862Z,989.8
2019-03-17T04:19:31.006Z,989.81
2019-03-17T04:19:57.196Z,990.01
2019-03-17T04:20:23.308Z,989.82
2019-03-17T04:20:49.418Z,989.84
2019-03-17T04:21:15.553Z,989.77
2019-03-17T04:21:41.750Z,989.83
2019-03-17T04:22:07.924Z,989.91
2019-03-17T04:22:34.073Z,989.81
2019-03-17T04:23:00.238Z,989.75
2019-03-17T04:23:26.348Z,989.81
2019-03-17T04:23:52.607Z,989.68
2019-03-17T04:24:18.718Z,989.71
2019-03-17T04:24:44.826Z,989.75
2019-03-17T04:25:10.983Z,989.85
2019-03-17T04:25:37.096Z,989.67
2019-03-17T04:26:03.232Z,989.86
2019-03-17T04:26:29.371Z,989.74
2019-03-17T04:26:55.480Z,989.68
2019-03-17T04:27:21.650Z,989.68
2019-03-17T04:27:47.757Z,989.71
2019-03-17T04:28:13.867Z,989.69
2019-03-17T04:28:40.003Z,989.67
2019-03-17T04:29:06.142Z,989.71
2019-03-17T04:29:32.298Z,989.67
2019-03-17T04:29:58.518Z,989.71
2019-03-17T04:30:24.654Z,989.73
2019-03-17T04:30:50.760Z,989.7
2019-03-17T04:31:17.888Z,989.78
2019-03-17T04:31:43.986Z,989.76
2019-03-17T04:32:10.101Z,989.88
2019-03-17T04:32:36.210Z,989.79
2019-03-17T04:33:02.320Z,989.82
2019-03-17T04:33:28.455Z,989.8
2019-03-17T04:33:54.534Z,989.81
2019-03-17T04:34:20.672Z,989.78
2019-03-17T04:34:46.779Z,989.93
2019-03-17T04:35:13.074Z,989.74
2019-03-17T04:35:39.198Z,989.88
2019-03-17T04:36:05.341Z,989.77
2019-03-17T04:36:39.807Z,989.88
2019-03-17T04:37:00.530Z,989.58
2019-03-17T04:37:26.632Z,989.81
2019-03-17T04:37:52.784Z,989.67
2019-03-17T04:38:18.890Z,989.78
2019-03-17T04:38:45.001Z,989.79
2019-03-17T04:39:11.115Z,989.84
2019-03-17T04:39:37.247Z,989.77
2019-03-17T04:40:03.384Z,989.77
2019-03-17T04:40:29.521Z,989.73
2019-03-17T04:40:55.625Z,989.82
2019-03-17T04:41:21.742Z,989.83
2019-03-17T04:41:47.847Z,989.72
2019-03-17T04:42:13.962Z,989.98
2019-03-17T04:42:40.067Z,989.76
2019-03-17T04:43:06.179Z,989.76
2019-03-17T04:43:32.284Z,989.77
2019-03-17T04:43:58.402Z,989.81
2019-03-17T04:44:26.513Z,989.92
2019-03-17T04:44:52.612Z,989.76
2019-03-17T04:45:18.746Z,989.85
2019-03-17T04:45:44.890Z,989.71
2019-03-17T04:46:11.025Z,989.72
2019-03-17T04:46:37.234Z,989.87
2019-03-17T04:47:03.350Z,989.74
2019-03-17T04:47:29.453Z,989.78
2019-03-17T04:47:55.583Z,989.82
2019-03-17T04:48:21.691Z,990.03
2019-03-17T04:48:47.850Z,989.89
2019-03-17T04:49:14.093Z,989.87
2019-03-17T04:49:40.201Z,989.86
2019-03-17T04:50:06.329Z,989.85
2019-03-17T04:50:32.416Z,989.67
2019-03-17T04:50:58.522Z,989.88
2019-03-17T04:51:24.639Z,989.85
2019-03-17T04:51:50.755Z,989.73
2019-03-17T04:52:16.857Z,990.18
2019-03-17T04:52:42.966Z,989.92
2019-03-17T04:53:09.081Z,989.89
2019-03-17T04:53:35.178Z,989.86
2019-03-17T04:54:01.285Z,989.76
2019-03-17T04:54:27.392Z,989.91
2019-03-17T04:54:53.500Z,989.95
2019-03-17T04:55:19.606Z,990.1
2019-03-17T04:55:45.714Z,989.84
2019-03-17T04:56:11.822Z,989.96
2019-03-17T04:56:37.930Z,989.81
2019-03-17T04:57:04.039Z,989.86
2019-03-17T04:57:30.152Z,989.88
2019-03-17T04:57:56.293Z,990.01
2019-03-17T04:58:22.399Z,989.93
2019-03-17T04:58:48.512Z,989.99
2019-03-17T04:59:14.616Z,990.03
2019-03-17T04:59:40.727Z,989.89
2019-03-17T05:00:06.849Z,989.9
2019-03-17T05:00:32.953Z,989.95
2019-03-17T05:00:59.069Z,989.9
2019-03-17T05:01:25.177Z,990.14
2019-03-17T05:01:51.291Z,990.19
2019-03-17T05:02:18.447Z,990.02
2019-03-17T05:02:44.558Z,990.09
2019-03-17T05:03:10.667Z,989.94
2019-03-17T05:03:36.778Z,989.97
2019-03-17T05:04:02.886Z,990.02
2019-03-17T05:04:28.994Z,989.96
2019-03-17T05:04:55.102Z,990.06
2019-03-17T05:05:21.281Z,989.91
2019-03-17T05:05:47.387Z,989.9
2019-03-17T05:06:13.500Z,989.99
2019-03-17T05:06:47.796Z,989.95
2019-03-17T05:07:07.723Z,989.95
2019-03-17T05:07:33.827Z,989.96
2019-03-17T05:07:59.943Z,989.98
2019-03-17T05:08:26.052Z,990.05
2019-03-17T05:08:52.191Z,989.99
2019-03-17T05:09:18.298Z,990
2019-03-17T05:09:44.409Z,990.06
2019-03-17T05:10:10.524Z,990.06
2019-03-17T05:10:37.619Z,990.09
2019-03-17T05:11:03.727Z,990.21
2019-03-17T05:11:29.835Z,990.16
2019-03-17T05:11:55.942Z,990.08
2019-03-17T05:12:22.047Z,989.99
2019-03-17T05:12:48.184Z,990.08
2019-03-17T05:13:14.287Z,990.06
2019-03-17T05:13:40.394Z,990.12
2019-03-17T05:14:06.500Z,990.29
2019-03-17T05:14:32.608Z,990.28
2019-03-17T05:14:58.715Z,990.16
2019-03-17T05:15:24.819Z,990.17
2019-03-17T05:15:50.934Z,990.13
2019-03-17T05:16:17.048Z,990.13
2019-03-17T05:16:44.144Z,990.18
2019-03-17T05:17:10.281Z,990.14
2019-03-17T05:17:36.389Z,990.08
2019-03-17T05:18:02.503Z,990.14
2019-03-17T05:18:28.610Z,990.32
2019-03-17T05:18:54.726Z,990.09
2019-03-17T05:19:20.838Z,990.14
2019-03-17T05:19:46.950Z,990.1
2019-03-17T05:20:13.114Z,990.2
2019-03-17T05:20:39.223Z,990.19
2019-03-17T05:21:05.338Z,990.25
2019-03-17T05:21:31.445Z,990.22
2019-03-17T05:21:57.550Z,990.25
2019-03-17T05:22:23.684Z,990.27
2019-03-17T05:22:49.795Z,990.26
2019-03-17T05:23:16.524Z,990.11
2019-03-17T05:23:42.703Z,990.13
2019-03-17T05:24:08.802Z,990.24
2019-03-17T05:24:34.911Z,990.18
2019-03-17T05:25:01.021Z,990.22
2019-03-17T05:25:27.215Z,990.35
2019-03-17T05:25:53.326Z,990.23
2019-03-17T05:26:19.427Z,990.22
2019-03-17T05:26:45.539Z,990.23
2019-03-17T05:27:11.670Z,990.21
2019-03-17T05:27:37.785Z,990.31
2019-03-17T05:28:03.916Z,990.26
2019-03-17T05:28:30.025Z,990.23